Airfield :
LOGIN :

Register | Disclaimer

   EN    FR    IT 

 










Legend :    VFR   Marginal VFR   IFR   Intensive IFR   Very Intensive IFR
Visi :
Ceiling :
>= 8 km
>= 3000ft
5 to 8 km
1000 to 3000 ft
1500m to 5 km
500 to 1000 ft
800 to 1500m
200 to 500 ft
< 800m
< 200 ft
Symbols :   Thunderstorms  Fog  Heavy snow  Heavy precipitations  Wind > 20 kt
SIGMETs :     Misc.  Thunderstorms  Icing  Turbulence  Mountain Waves  Volcanic Ashes







- Airport Elevation : 446 ft
- IATA code : VNE
- Download approach charts


LFRV - Vannes-Meucon

CURRENT METAR :
  • 231530Z AUTO 01016G26KT 9999 BKN022 OVC028 14/11 Q1023

EXPIRED METARs :
  • 231500Z AUTO 01016G27KT 9999 OVC017 14/12 Q1022
  • 231430Z AUTO 01016KT 330V040 9999 OVC016 15/13 Q1021
  • 231400Z AUTO 36015KT 9999 OVC016 16/14 Q1020
  • 231330Z AUTO 36012KT 330V030 9999 SCT008 BKN013 BKN027 17/15 Q1020
  • 231300Z AUTO 34013KT 9999 BKN009 OVC013 17/16 Q1019

TAF N/A
No reported NOTAMs for that airfield.
1 SIGMET reported for the Brest FIR (LFRR) :
 
Severe turbulence
LFRR SIGMET 2 VALID 231100/231500 LFPW
LFRR BREST FIR/UIR SEV TURB FCST WI N4930 W00530 - N5000 W00200 - N5000 W00015 - N4945 W00015 - N4845 W00500 - N4930 W00530 FL350/430 STNR NC=



MET'MAP, your aeronautical weather chart ! - Copyright ORBIFLY December 2007 - Disclaimer

ORBIFLY MET'MAP TEAM :

Programming & Development : Alexandra Zaïnal
Concept & Development : Baudouin d'Aumeries
Co-Development & Prog : Marc-Olivier Méhu
Technical & hardware support : Manuel Goepfert

Contact : metmap@orbifly.com




SOURCES & CREDITS :

   NOAA